Time;durP1;ratioP1;P1;durP2;ratioP2;P2;SDS_P1;SDS_P2;PMS_P1;PMS_P2;Temp;Humidity;BMP_temperature;BMP_pressure;BME280_temperature;BME280_humidity;BME280_pressure;Samples;Min_cycle;Max_cycle;Signal;HPM_P1;HPM_P2
2022/03/23 00:01:38;;;;;;;8.00;5.80;;;;;;;7.69;37.98;96505.94;4977208;28;20120;-69
2022/03/23 00:04:04;;;;;;;8.95;6.35;;;;;;;7.67;38.21;96505.34;4993740;28;20116;-70
2022/03/23 00:06:29;;;;;;;7.60;6.25;;;;;;;7.43;38.01;96467.81;4977238;28;20030;-69
2022/03/23 00:08:55;;;;;;;10.05;6.18;;;;;;;7.77;37.95;96529.28;4994166;28;20035;-70
2022/03/23 00:11:20;;;;;;;9.75;6.07;;;;;;;7.74;37.60;96516.56;4994476;28;20085;-70
2022/03/23 00:13:47;;;;;;;9.77;5.63;;;;;;;7.62;38.52;96505.31;4994649;28;20023;-72
2022/03/23 00:16:12;;;;;;;7.30;6.07;;;;;;;7.68;38.38;96526.31;4994613;28;20029;-71
2022/03/23 00:18:38;;;;;;;6.82;5.57;;;;;;;7.38;38.11;96487.09;4994162;28;20038;-71
2022/03/23 00:21:03;;;;;;;8.00;5.97;;;;;;;7.52;38.36;96503.38;4994415;28;20031;-70
2022/03/23 00:23:28;;;;;;;6.93;5.65;;;;;;;7.42;38.60;96487.38;4994481;28;20027;-70
2022/03/23 00:25:54;;;;;;;6.90;5.75;;;;;;;7.07;38.52;96442.88;4994517;28;20045;-70
2022/03/23 00:28:20;;;;;;;6.45;5.85;;;;;;;7.19;38.55;96473.41;4994338;28;20498;-71
2022/03/23 00:30:47;;;;;;;7.68;5.65;;;;;;;7.16;38.59;96457.22;4993601;28;20038;-70
2022/03/23 00:33:14;;;;;;;7.78;6.28;;;;;;;7.38;39.01;96499.53;4977235;28;20034;-70
2022/03/23 00:35:40;;;;;;;9.82;6.32;;;;;;;7.09;39.00;96468.03;4976836;28;20022;-70
2022/03/23 00:38:06;;;;;;;6.95;6.30;;;;;;;7.07;38.80;96459.53;4994232;28;20033;-70
2022/03/23 00:40:32;;;;;;;7.07;5.85;;;;;;;7.30;39.62;96514.81;4976446;28;20534;-69
2022/03/23 00:43:01;;;;;;;10.05;5.80;;;;;;;7.02;40.41;96504.47;4976774;28;20030;-70
2022/03/23 00:45:27;;;;;;;7.57;6.70;;;;;;;7.19;39.89;96513.09;4976719;28;20399;-70
2022/03/23 00:47:52;;;;;;;7.68;6.15;;;;;;;6.96;40.14;96469.22;4994106;28;20019;-69
2022/03/23 00:50:18;;;;;;;6.35;5.57;;;;;;;6.90;40.03;96472.84;4993734;28;20033;-69
2022/03/23 00:52:46;;;;;;;6.55;5.95;;;;;;;6.74;40.57;96461.28;4994148;28;20356;-70
2022/03/23 00:55:11;;;;;;;7.55;5.72;;;;;;;6.78;40.12;96449.16;4994107;28;20027;-69
2022/03/23 00:57:37;;;;;;;8.07;6.40;;;;;;;6.96;40.51;96471.03;4994002;28;20375;-71
2022/03/23 01:00:12;;;;;;;8.25;6.50;;;;;;;7.24;40.42;96515.81;4976377;28;20030;-71
2022/03/23 01:02:39;;;;;;;7.78;6.50;;;;;;;7.24;39.82;96515.00;4994079;28;20030;-70
2022/03/23 01:05:05;;;;;;;7.75;6.05;;;;;;;6.97;40.06;96475.31;4994009;28;20023;-71
2022/03/23 01:07:30;;;;;;;9.95;6.10;;;;;;;6.84;40.98;96476.47;4976207;28;20038;-71
2022/03/23 01:09:56;;;;;;;9.00;6.22;;;;;;;6.94;40.63;96481.88;4975977;28;20030;-69
2022/03/23 01:12:22;;;;;;;7.28;6.35;;;;;;;6.71;41.22;96477.66;4993577;28;20480;-69
2022/03/23 01:14:47;;;;;;;7.22;6.40;;;;;;;6.52;41.88;96484.28;4993833;28;20022;-68
2022/03/23 01:17:13;;;;;;;11.75;7.13;;;;;;;6.62;41.90;96465.09;4993490;28;20386;-69
2022/03/23 01:19:38;;;;;;;9.45;7.05;;;;;;;6.63;41.28;96451.63;4993416;28;20027;-69
2022/03/23 01:22:05;;;;;;;13.70;6.63;;;;;;;7.01;41.49;96497.56;4975025;28;20083;-69
2022/03/23 01:24:30;;;;;;;10.25;6.63;;;;;;;6.98;41.45;96500.72;4975827;28;20026;-69
2022/03/23 01:26:56;;;;;;;8.55;6.95;;;;;;;6.58;41.35;96456.84;4975817;28;20101;-71
2022/03/23 01:29:21;;;;;;;10.32;7.50;;;;;;;6.68;41.62;96462.28;4975584;28;20030;-71
2022/03/23 01:31:46;;;;;;;10.40;6.82;;;;;;;6.90;41.48;96503.78;4993145;28;20456;-70
2022/03/23 01:34:12;;;;;;;9.35;6.60;;;;;;;6.27;41.42;96399.38;4993182;28;20038;-70
2022/03/23 01:36:37;;;;;;;12.38;7.30;;;;;;;6.74;41.73;96482.44;4975711;28;20027;-70
2022/03/23 01:39:03;;;;;;;8.77;7.28;;;;;;;6.83;41.38;96489.94;4992887;28;20023;-71
2022/03/23 01:41:29;;;;;;;7.60;6.75;;;;;;;6.25;41.88;96431.34;4992927;28;20081;-71
2022/03/23 01:43:54;;;;;;;9.23;7.85;;;;;;;6.67;42.06;96489.75;4975576;28;20038;-72
2022/03/23 01:46:20;;;;;;;8.63;7.50;;;;;;;6.62;42.10;96476.47;4992955;28;20047;-71
2022/03/23 01:48:47;;;;;;;9.02;6.68;;;;;;;6.07;42.01;96384.88;4975196;28;20027;-70
2022/03/23 01:51:14;;;;;;;12.88;7.70;;;;;;;6.48;41.91;96454.88;4992782;28;20034;-71
2022/03/23 01:53:40;;;;;;;13.90;8.50;;;;;;;6.83;42.44;96516.41;4975440;28;20048;-71
2022/03/23 01:56:07;;;;;;;9.77;7.40;;;;;;;6.80;42.33;96507.09;4991522;28;20104;-71
2022/03/23 01:58:32;;;;;;;8.57;7.65;;;;;;;6.37;41.90;96433.88;4992457;28;20506;-71
2022/03/23 02:00:59;;;;;;;8.75;7.13;;;;;;;6.63;41.98;96475.44;4992605;28;20030;-70
2022/03/23 02:03:25;;;;;;;10.88;8.32;;;;;;;6.39;42.50;96451.06;4975268;28;20037;-70
2022/03/23 02:05:51;;;;;;;8.52;7.55;;;;;;;6.36;42.33;96443.66;4975268;28;20076;-70
2022/03/23 02:08:16;;;;;;;9.15;7.88;;;;;;;6.66;42.76;96503.25;4992180;28;20030;-69
2022/03/23 02:10:41;;;;;;;9.98;7.85;;;;;;;6.37;42.56;96458.44;4992289;28;20037;-70
2022/03/23 02:13:09;;;;;;;9.25;7.95;;;;;;;6.21;42.50;96435.50;4975079;28;20022;-70
2022/03/23 02:15:35;;;;;;;10.02;7.85;;;;;;;6.15;42.79;96431.22;4975093;28;20029;-70
2022/03/23 02:18:01;;;;;;;9.30;7.70;;;;;;;6.27;42.85;96454.88;4992472;28;20113;-70
2022/03/23 02:20:26;;;;;;;9.95;7.75;;;;;;;6.41;43.00;96478.06;4992184;28;20475;-70
2022/03/23 02:22:53;;;;;;;10.65;7.78;;;;;;;6.24;42.96;96456.97;4991283;28;20030;-70
2022/03/23 02:25:22;;;;;;;9.88;7.85;;;;;;;6.34;43.33;96481.91;4992694;28;20634;-71
2022/03/23 02:27:48;;;;;;;9.90;8.43;;;;;;;5.78;42.91;96391.28;4992351;28;20045;-70
2022/03/23 02:30:14;;;;;;;10.35;7.97;;;;;;;6.04;43.38;96425.00;4992050;28;20050;-68
2022/03/23 02:32:40;;;;;;;13.77;7.57;;;;;;;5.94;43.47;96412.44;4974740;28;20041;-68
2022/03/23 02:35:07;;;;;;;10.48;8.15;;;;;;;6.43;43.21;96502.41;4992287;28;20034;-70
2022/03/23 02:37:34;;;;;;;13.55;7.72;;;;;;;6.16;43.95;96454.75;4992244;28;20033;-70
2022/03/23 02:39:59;;;;;;;9.20;8.10;;;;;;;5.67;43.66;96377.16;4992065;28;20113;-70
2022/03/23 02:42:25;;;;;;;10.80;7.82;;;;;;;6.39;43.88;96489.91;4974605;28;20109;-69
2022/03/23 02:44:50;;;;;;;9.38;8.32;;;;;;;6.13;43.75;96454.41;4992069;28;20038;-69
2022/03/23 02:47:15;;;;;;;10.82;8.50;;;;;;;6.16;44.05;96464.50;4974687;28;20029;-69
2022/03/23 02:49:41;;;;;;;10.25;8.05;;;;;;;6.39;44.16;96496.00;4974409;28;20074;-71
2022/03/23 02:52:06;;;;;;;10.60;7.70;;;;;;;6.24;43.92;96482.56;4992050;28;20030;-70
2022/03/23 03:03:15;;;;;;;13.20;9.00;;;;;;;6.23;44.49;96494.97;4992094;28;20037;-70
2022/03/23 03:05:41;;;;;;;15.75;9.25;;;;;;;6.08;44.68;96471.00;4974487;28;20398;-68
2022/03/23 03:10:50;;;;;;;16.13;8.30;;;;;;;6.21;44.59;96504.22;4991400;28;20053;-69
2022/03/23 03:13:16;;;;;;;20.20;9.60;;;;;;;5.74;44.82;96436.69;4990885;28;20500;-70
2022/03/23 03:15:41;;;;;;;13.55;9.32;;;;;;;6.14;44.86;96500.91;4991500;28;20054;-70
2022/03/23 03:18:06;;;;;;;13.85;9.07;;;;;;;5.76;44.60;96444.34;4974278;28;20038;-70
2022/03/23 03:20:32;;;;;;;11.82;8.70;;;;;;;5.86;45.13;96462.19;4973628;28;20546;-70
2022/03/23 03:22:58;;;;;;;11.32;8.60;;;;;;;5.92;45.16;96487.66;4974374;28;20542;-70
2022/03/23 03:25:24;;;;;;;13.30;9.07;;;;;;;5.88;45.53;96482.00;4991738;28;20113;-71
2022/03/23 03:27:49;;;;;;;10.43;8.25;;;;;;;5.85;45.08;96479.06;4991780;28;20113;-71
2022/03/23 03:30:17;;;;;;;9.02;7.68;;;;;;;5.80;45.52;96484.28;4973905;28;20431;-71
2022/03/23 03:32:43;;;;;;;9.85;8.18;;;;;;;5.83;46.06;96496.97;4992002;28;20023;-70
2022/03/23 03:35:10;;;;;;;9.98;8.20;;;;;;;5.85;46.29;96508.13;4974418;28;20022;-71
2022/03/23 03:37:36;;;;;;;9.25;8.23;;;;;;;5.61;46.46;96489.78;4991832;28;20018;-70
2022/03/23 03:40:04;;;;;;;9.77;8.77;;;;;;;5.26;46.97;96437.22;4991573;28;20497;-70
2022/03/23 03:42:30;;;;;;;9.02;8.13;;;;;;;5.68;46.39;96506.28;4991683;28;20076;-70
2022/03/23 03:44:57;;;;;;;12.75;7.60;;;;;;;5.48;46.40;96450.53;4993223;28;20036;-70
2022/03/23 03:47:23;;;;;;;13.48;9.05;;;;;;;5.85;45.65;96505.47;4995290;28;20486;-70
2022/03/23 03:49:50;;;;;;;13.00;9.38;;;;;;;5.40;45.94;96441.16;4994953;28;20031;-69
2022/03/23 03:52:15;;;;;;;10.77;9.65;;;;;;;5.81;45.61;96507.78;4977673;28;20034;-69
2022/03/23 03:54:41;;;;;;;13.10;9.45;;;;;;;5.80;46.10;96508.03;4977649;28;20026;-69
2022/03/23 03:57:07;;;;;;;11.30;9.30;;;;;;;5.81;45.97;96513.06;4977787;28;20018;-70
2022/03/23 03:59:34;;;;;;;11.02;9.40;;;;;;;5.55;46.26;96467.00;4994849;28;20026;-68
2022/03/23 04:01:59;;;;;;;15.05;10.55;;;;;;;5.60;46.18;96471.56;4977351;28;20030;-70
2022/03/23 04:04:25;;;;;;;13.15;9.30;;;;;;;5.12;47.28;96431.44;4977400;28;20042;-70
2022/03/23 04:06:50;;;;;;;15.77;9.85;;;;;;;5.14;46.59;96405.63;4977613;28;20382;-70
2022/03/23 04:09:15;;;;;;;16.15;10.13;;;;;;;5.62;46.41;96475.53;4976983;28;20042;-69
2022/03/23 04:11:41;;;;;;;18.02;9.38;;;;;;;5.52;46.50;96453.47;4977179;28;20027;-69
2022/03/23 04:14:06;;;;;;;9.82;8.82;;;;;;;5.85;46.34;96510.75;4977491;28;20113;-69
2022/03/23 04:16:31;;;;;;;12.30;8.73;;;;;;;5.72;46.95;96496.03;4994677;28;20069;-69
2022/03/23 04:18:57;;;;;;;12.77;9.45;;;;;;;5.52;47.37;96478.00;4994888;28;20103;-69
2022/03/23 04:21:22;;;;;;;17.33;9.40;;;;;;;5.76;46.46;96501.63;4994476;28;20383;-69
2022/03/23 04:23:48;;;;;;;10.50;9.48;;;;;;;5.69;46.73;96515.78;4994401;28;20029;-69
2022/03/23 04:26:13;;;;;;;10.80;9.40;;;;;;;5.43;46.73;96469.69;4994598;28;20415;-69
2022/03/23 04:28:39;;;;;;;15.27;9.05;;;;;;;5.74;46.39;96526.44;4992959;28;20030;-69
2022/03/23 04:31:06;;;;;;;13.75;8.68;;;;;;;5.50;46.60;96488.00;4994283;28;20361;-69
2022/03/23 04:33:31;;;;;;;17.73;9.82;;;;;;;5.64;46.11;96501.72;4994250;28;20026;-69
2022/03/23 04:35:57;;;;;;;15.00;9.30;;;;;;;5.47;46.28;96488.47;4994087;28;20495;-69
2022/03/23 04:38:22;;;;;;;12.52;9.52;;;;;;;5.09;48.85;96528.69;4993969;28;20030;-69
2022/03/23 04:40:48;;;;;;;11.65;9.13;;;;;;;5.29;47.19;96481.59;4994182;28;20084;-69
2022/03/23 04:43:14;;;;;;;15.07;9.52;;;;;;;4.95;49.17;96504.44;4992929;28;20022;-69
2022/03/23 04:45:40;;;;;;;9.82;8.65;;;;;;;5.14;48.76;96531.44;4976703;28;20044;-68
2022/03/23 04:48:06;;;;;;;13.77;9.65;;;;;;;5.08;47.98;96461.97;4976573;28;20029;-69
2022/03/23 04:50:31;;;;;;;14.95;9.48;;;;;;;5.48;47.15;96519.94;4993557;28;20097;-70
2022/03/23 04:52:57;;;;;;;14.38;9.55;;;;;;;5.57;46.74;96527.44;4992484;28;20022;-70
2022/03/23 04:55:22;;;;;;;18.70;9.95;;;;;;;5.40;47.10;96508.94;4993338;28;20030;-70
2022/03/23 04:57:48;;;;;;;11.55;9.60;;;;;;;5.39;46.83;96515.28;4975612;28;20383;-70
2022/03/23 05:00:16;;;;;;;15.18;10.10;;;;;;;5.43;46.95;96530.41;4993686;28;20383;-69
2022/03/23 05:02:45;;;;;;;14.75;9.85;;;;;;;5.53;46.66;96548.25;4993864;28;20418;-69
2022/03/23 05:05:11;;;;;;;12.15;9.00;;;;;;;5.17;46.93;96500.13;4993814;28;20034;-70
2022/03/23 05:07:38;;;;;;;15.25;9.73;;;;;;;4.91;48.73;96521.75;4993665;28;20069;-69
2022/03/23 05:10:04;;;;;;;12.18;9.68;;;;;;;5.26;48.48;96555.91;4975920;28;20483;-70
2022/03/23 05:12:30;;;;;;;13.13;8.90;;;;;;;5.18;47.72;96532.56;4975926;28;20026;-69
2022/03/23 05:14:55;;;;;;;15.45;10.23;;;;;;;4.98;47.41;96466.25;4976142;28;20064;-69
2022/03/23 05:17:21;;;;;;;14.50;9.45;;;;;;;5.63;47.35;96556.34;4975799;28;20394;-70
2022/03/23 05:19:46;;;;;;;14.00;9.35;;;;;;;5.31;47.73;96531.47;4993037;28;20101;-70
2022/03/23 05:22:12;;;;;;;17.42;9.98;;;;;;;5.13;48.56;96545.66;4975606;28;20045;-70
2022/03/23 05:24:39;;;;;;;14.27;9.85;;;;;;;5.31;47.91;96524.34;4992166;28;20415;-70
2022/03/23 05:27:05;;;;;;;19.20;11.00;;;;;;;5.32;47.71;96533.88;4993413;28;20369;-70
2022/03/23 05:29:31;;;;;;;27.55;11.15;;;;;;;5.54;47.35;96541.94;4975516;28;20084;-70
2022/03/23 05:31:56;;;;;;;29.92;11.02;;;;;;;5.80;46.51;96564.28;4992784;28;20084;-70
2022/03/23 05:34:21;;;;;;;19.15;10.23;;;;;;;5.84;46.91;96557.50;4993230;28;20022;-70
2022/03/23 05:36:47;;;;;;;19.33;9.55;;;;;;;5.74;46.58;96546.75;4993101;28;20456;-70
2022/03/23 05:39:13;;;;;;;21.73;10.10;;;;;;;5.93;46.94;96569.28;4992934;28;20026;-71
2022/03/23 05:41:38;;;;;;;20.70;10.70;;;;;;;5.99;46.88;96570.19;4993121;28;20046;-69
2022/03/23 05:44:04;;;;;;;22.13;11.23;;;;;;;6.07;46.68;96563.69;4975438;28;20022;-70
2022/03/23 05:46:30;;;;;;;21.30;9.68;;;;;;;6.05;46.58;96553.38;4992929;28;20032;-70
2022/03/23 05:48:56;;;;;;;13.48;9.55;;;;;;;5.99;47.16;96525.28;4991384;28;20034;-70
2022/03/23 05:51:23;;;;;;;13.57;9.00;;;;;;;6.14;46.62;96536.09;4992819;28;20447;-70
2022/03/23 05:53:49;;;;;;;14.60;9.10;;;;;;;6.31;46.40;96556.41;4992734;28;20030;-70
2022/03/23 05:56:14;;;;;;;12.50;9.10;;;;;;;6.43;46.31;96579.03;4992816;28;20117;-70
2022/03/23 05:58:40;;;;;;;12.68;9.63;;;;;;;6.41;46.71;96546.00;4992638;28;20284;-70
2022/03/23 06:01:06;;;;;;;14.95;9.07;;;;;;;6.62;45.90;96568.22;4992700;28;20029;-69
2022/03/23 06:03:31;;;;;;;16.17;8.98;;;;;;;6.46;46.22;96532.84;4992591;28;20026;-70
2022/03/23 06:05:57;;;;;;;17.83;9.65;;;;;;;6.79;45.78;96566.31;4993026;28;20061;-70
2022/03/23 06:08:22;;;;;;;14.20;9.52;;;;;;;6.41;45.50;96491.28;4992000;28;20526;-71
2022/03/23 06:10:48;;;;;;;12.05;9.95;;;;;;;6.70;45.53;96517.53;4992593;28;20034;-70
2022/03/23 06:13:15;;;;;;;12.55;9.07;;;;;;;6.99;45.03;96547.28;4992620;28;20049;-70
2022/03/23 06:15:41;;;;;;;27.52;10.30;;;;;;;6.83;44.46;96511.09;4992596;28;20096;-70
2022/03/23 06:18:06;;;;;;;13.07;8.63;;;;;;;6.49;44.75;96450.41;4992176;28;20034;-70
2022/03/23 06:20:32;;;;;;;17.33;9.32;;;;;;;7.38;44.92;96569.16;4991748;28;20475;-71
2022/03/23 06:22:57;;;;;;;25.70;9.30;;;;;;;7.11;44.82;96542.63;4992161;28;20034;-67
2022/03/23 06:25:25;;;;;;;29.60;10.38;;;;;;;7.40;44.22;96555.69;4992258;28;20026;-65
2022/03/23 06:27:50;;;;;;;27.50;8.73;;;;;;;7.50;43.99;96545.19;4992015;28;20105;-66
2022/03/23 06:30:16;;;;;;;17.25;9.73;;;;;;;7.82;43.84;96575.16;4991687;28;20092;-66
2022/03/23 06:32:41;;;;;;;19.75;9.52;;;;;;;7.94;42.84;96567.06;4992203;28;20034;-67
2022/03/23 06:35:07;;;;;;;15.30;8.05;;;;;;;8.15;42.74;96589.25;4992199;28;20023;-66
2022/03/23 06:37:32;;;;;;;10.93;7.18;;;;;;;8.32;42.12;96589.91;4992143;28;20033;-67
2022/03/23 06:39:58;;;;;;;12.75;8.25;;;;;;;8.15;42.11;96549.50;4991885;28;20448;-67
2022/03/23 06:42:24;;;;;;;9.82;8.13;;;;;;;8.43;41.44;96563.50;4990386;28;20019;-66
2022/03/23 06:44:50;;;;;;;8.75;7.47;;;;;;;8.45;41.65;96569.34;4974343;28;20027;-67
2022/03/23 06:47:15;;;;;;;12.15;7.95;;;;;;;9.05;40.72;96595.41;4991705;28;20026;-67
2022/03/23 06:49:41;;;;;;;15.30;7.85;;;;;;;8.80;39.85;96524.47;4991124;28;20034;-67
2022/03/23 06:52:07;;;;;;;9.63;7.65;;;;;;;9.22;39.97;96560.75;4974048;28;20023;-67
2022/03/23 06:54:32;;;;;;;9.93;7.70;;;;;;;9.37;39.87;96557.34;4991866;28;20105;-71
2022/03/23 06:56:58;;;;;;;11.55;7.75;;;;;;;9.72;39.45;96577.84;4991856;28;20033;-69
2022/03/23 06:59:23;;;;;;;11.27;8.63;;;;;;;9.77;39.66;96572.56;4974247;28;20026;-72
2022/03/23 07:01:48;;;;;;;13.50;8.45;;;;;;;9.90;39.21;96579.22;4974116;28;20121;-71
2022/03/23 07:04:15;;;;;;;13.57;7.72;;;;;;;10.09;39.00;96592.81;4991915;28;20058;-71
2022/03/23 07:06:41;;;;;;;10.20;7.68;;;;;;;9.79;38.91;96535.09;4991884;28;20031;-71
2022/03/23 07:11:52;;;;;;;15.20;8.55;;;;;;;9.68;38.49;96576.00;4977002;28;20124;-71
2022/03/23 07:14:18;;;;;;;10.70;8.60;;;;;;;10.02;38.50;96571.78;4991961;28;20022;-73
2022/03/23 07:16:43;;;;;;;11.27;9.02;;;;;;;9.98;38.36;96588.53;4991639;28;20124;-72
2022/03/23 07:19:09;;;;;;;14.73;9.90;;;;;;;9.67;39.14;96563.75;4992174;28;20085;-71
2022/03/23 07:21:35;;;;;;;16.08;10.30;;;;;;;9.06;39.72;96538.66;4995839;28;20407;-73
2022/03/23 07:24:00;;;;;;;18.02;10.55;;;;;;;9.97;38.28;96568.34;4995675;28;20032;-69
2022/03/23 07:26:26;;;;;;;25.33;11.10;;;;;;;10.20;37.71;96570.47;4978047;28;20090;-69
2022/03/23 07:28:51;;;;;;;15.88;10.68;;;;;;;10.59;37.12;96552.09;4976085;28;20415;-69
2022/03/23 07:31:16;;;;;;;21.00;11.93;;;;;;;10.96;37.45;96568.81;4958501;28;20030;-66
2022/03/23 07:33:42;;;;;;;24.17;11.30;;;;;;;11.12;36.40;96600.44;4976117;28;20039;-67
2022/03/23 07:36:08;;;;;;;21.00;11.48;;;;;;;11.30;36.19;96599.03;4976043;28;20588;-69
2022/03/23 07:38:34;;;;;;;11.75;10.15;;;;;;;11.23;36.05;96595.88;4975992;28;20027;-72
2022/03/23 07:40:59;;;;;;;14.50;10.35;;;;;;;10.61;36.93;96567.81;4975965;28;20038;-70
2022/03/23 07:43:25;;;;;;;15.65;9.88;;;;;;;10.18;36.90;96538.03;4976150;28;20023;-70
2022/03/23 07:45:50;;;;;;;11.13;9.98;;;;;;;10.41;36.15;96545.50;4976050;28;20665;-69
2022/03/23 07:48:16;;;;;;;12.88;9.18;;;;;;;10.48;35.73;96555.06;4975893;28;20105;-69
2022/03/23 07:50:41;;;;;;;11.98;10.75;;;;;;;10.57;36.01;96524.19;4975661;28;20403;-72
2022/03/23 07:53:07;;;;;;;10.68;8.90;;;;;;;11.09;34.59;96614.28;4975792;28;20042;-70
2022/03/23 07:55:32;;;;;;;11.48;10.05;;;;;;;10.17;35.60;96552.38;4975389;28;20027;-71
2022/03/23 07:57:58;;;;;;;11.13;9.93;;;;;;;10.66;35.10;96549.97;4975674;28;20495;-70
2022/03/23 08:00:23;;;;;;;11.55;10.35;;;;;;;10.51;34.48;96542.03;4975065;28;20046;-70
2022/03/23 08:02:50;;;;;;;11.70;10.50;;;;;;;10.91;35.04;96559.78;4975533;28;20116;-69
2022/03/23 08:05:16;;;;;;;19.13;10.48;;;;;;;11.67;34.25;96616.47;4975326;28;20019;-70
2022/03/23 08:07:42;;;;;;;11.43;10.20;;;;;;;12.14;34.10;96599.16;4975418;28;20090;-70
2022/03/23 08:10:07;;;;;;;12.05;10.40;;;;;;;11.51;33.72;96519.81;4974658;28;20035;-69
2022/03/23 08:12:34;;;;;;;15.95;10.45;;;;;;;11.13;33.67;96551.44;4975147;28;20543;-70
2022/03/23 08:14:59;;;;;;;11.90;10.30;;;;;;;11.68;32.77;96576.22;4975184;28;20038;-70
2022/03/23 08:17:25;;;;;;;16.60;10.25;;;;;;;12.06;33.27;96618.41;4975035;28;20038;-70
2022/03/23 08:20:32;;;;;;;16.85;11.75;;;;;;;12.26;32.39;96570.25;4975015;28;20031;-70
2022/03/23 08:22:35;;;;;;;11.70;10.57;;;;;;;12.03;32.68;96545.09;4975046;28;20514;-70
2022/03/23 08:25:01;;;;;;;11.65;10.55;;;;;;;12.69;31.67;96592.56;4975162;28;20039;-72
2022/03/23 08:27:26;;;;;;;17.88;10.20;;;;;;;13.36;31.46;96594.53;4976493;28;20030;-70
2022/03/23 08:29:52;;;;;;;13.98;11.25;;;;;;;13.67;31.34;96589.63;4993791;28;20097;-70
2022/03/23 08:32:17;;;;;;;13.73;10.85;;;;;;;13.98;30.79;96609.53;4992893;28;20092;-71
2022/03/23 08:34:43;;;;;;;23.30;11.25;;;;;;;13.94;30.50;96594.34;4994520;28;20022;-70
2022/03/23 08:37:08;;;;;;;12.05;9.57;;;;;;;13.33;28.73;96609.28;4993134;28;20026;-71
2022/03/23 08:39:34;;;;;;;15.20;9.88;;;;;;;12.44;28.60;96564.22;4976435;28;20026;-71
2022/03/23 08:41:59;;;;;;;12.35;10.57;;;;;;;13.52;28.35;96631.50;4978244;28;20559;-71
2022/03/23 08:44:24;;;;;;;13.50;10.50;;;;;;;13.61;27.78;96602.25;4974949;28;20520;-71
2022/03/23 08:46:50;;;;;;;14.52;10.68;;;;;;;13.17;28.14;96634.56;4974871;28;20023;-72
2022/03/23 08:49:15;;;;;;;12.85;10.43;;;;;;;13.72;27.95;96629.69;4974331;28;20034;-71
2022/03/23 08:51:41;;;;;;;17.80;10.85;;;;;;;13.71;27.39;96580.72;4956701;28;20039;-72
2022/03/23 08:54:06;;;;;;;14.05;10.52;;;;;;;13.72;26.99;96601.06;4974600;28;20073;-72
2022/03/23 08:56:32;;;;;;;10.75;9.65;;;;;;;13.35;26.83;96595.63;4984615;28;20101;-71
2022/03/23 08:58:57;;;;;;;12.23;9.85;;;;;;;12.85;27.55;96579.06;4976702;28;20499;-71
2022/03/23 09:01:23;;;;;;;17.83;11.00;;;;;;;13.33;26.96;96601.25;4993711;28;20102;-72
2022/03/23 09:03:49;;;;;;;15.40;10.23;;;;;;;13.56;27.81;96623.69;4993820;28;20030;-72
2022/03/23 09:06:15;;;;;;;12.95;10.75;;;;;;;13.43;27.77;96595.81;4993909;28;20022;-72
2022/03/23 09:08:41;;;;;;;15.20;10.32;;;;;;;14.12;26.60;96571.31;4975947;28;20085;-72
2022/03/23 09:11:06;;;;;;;17.35;10.57;;;;;;;14.68;25.26;96622.09;4992675;28;20556;-71
2022/03/23 09:13:32;;;;;;;18.02;10.40;;;;;;;14.27;26.19;96628.06;4993741;28;20360;-71
2022/03/23 09:15:57;;;;;;;13.50;11.25;;;;;;;13.72;26.69;96539.56;4976009;28;20027;-71
2022/03/23 09:18:26;;;;;;;20.80;12.13;;;;;;;14.25;27.58;96570.59;4993366;28;20033;-71
2022/03/23 09:20:51;;;;;;;12.68;11.38;;;;;;;14.22;27.13;96555.09;4993553;28;20041;-71
2022/03/23 09:23:17;;;;;;;16.95;11.65;;;;;;;14.87;26.40;96581.09;4976162;28;20023;-71
2022/03/23 09:25:43;;;;;;;14.10;11.75;;;;;;;15.16;25.57;96567.41;4990643;28;20460;-70
2022/03/23 09:28:11;;;;;;;14.00;11.45;;;;;;;15.20;26.31;96604.06;4972671;28;20027;-71
2022/03/23 09:30:37;;;;;;;15.70;12.05;;;;;;;15.40;25.56;96588.63;4955916;28;20034;-71
2022/03/23 09:33:02;;;;;;;13.30;11.13;;;;;;;14.75;25.46;96552.91;4956582;28;20033;-71
2022/03/23 09:35:28;;;;;;;16.95;11.93;;;;;;;14.89;26.40;96617.19;4973752;28;20472;-71
2022/03/23 09:37:56;;;;;;;15.70;12.30;;;;;;;15.45;25.42;96589.31;4973663;28;20031;-71
2022/03/23 09:40:25;;;;;;;12.70;11.07;;;;;;;15.27;25.94;96564.22;4955834;28;20041;-71
2022/03/23 09:42:57;;;;;;;13.60;11.45;;;;;;;15.46;25.33;96607.03;4971398;28;20039;-72
2022/03/23 09:45:46;;;;;;;12.75;11.38;;;;;;;15.34;25.56;96569.19;4973770;28;20027;-71
2022/03/23 09:48:13;;;;;;;14.55;11.13;;;;;;;15.51;25.52;96593.50;4956404;28;20037;-72
2022/03/23 09:50:43;;;;;;;15.50;11.82;;;;;;;16.31;25.02;96601.97;4973071;28;20031;-71
2022/03/23 09:53:09;;;;;;;12.52;11.35;;;;;;;16.61;24.35;96603.13;4973776;28;20380;-72
2022/03/23 09:55:36;;;;;;;15.20;11.88;;;;;;;14.84;25.15;96561.03;4973453;28;20027;-72
2022/03/23 09:58:03;;;;;;;16.73;11.32;;;;;;;14.82;25.28;96549.81;4973189;28;20396;-72
2022/03/23 10:00:40;;;;;;;14.20;11.20;;;;;;;15.32;24.90;96572.16;4975005;28;20093;-73
2022/03/23 10:03:11;;;;;;;12.80;11.60;;;;;;;16.39;24.35;96598.56;4992869;28;20022;-73
2022/03/23 10:05:52;;;;;;;14.18;11.20;;;;;;;16.10;24.47;96599.75;4991441;28;20483;-72
2022/03/23 10:08:35;;;;;;;15.93;12.52;;;;;;;15.55;25.30;96602.53;4992730;28;20034;-71
2022/03/23 10:11:29;;;;;;;13.82;12.10;;;;;;;16.22;24.52;96599.22;4991608;28;20029;-70
2022/03/23 10:14:51;;;;;;;13.60;12.23;;;;;;;16.74;23.96;96596.16;4992528;28;20026;-70
2022/03/23 10:17:19;;;;;;;;;;;;;;;16.43;24.66;96591.50;4916779;29;20042;-67
2022/03/23 10:19:45;;;;;;;13.98;11.75;;;;;;;16.04;24.38;96571.47;4932221;29;19915;-69
2022/03/23 10:22:14;;;;;;;15.27;11.25;;;;;;;16.02;24.81;96595.13;4960515;28;20046;-69
2022/03/23 10:24:40;;;;;;;14.05;12.15;;;;;;;16.36;23.85;96566.94;4975102;28;20391;-70
2022/03/23 10:27:12;;;;;;;13.80;11.98;;;;;;;16.79;24.86;96585.28;4966734;28;20034;-71
2022/03/23 10:29:46;;;;;;;13.95;12.15;;;;;;;17.29;24.55;96585.78;4968078;23;20051;-61
2022/03/23 10:32:13;;;;;;;13.30;11.48;;;;;;;16.85;23.65;96579.44;4952920;29;20058;-62
2022/03/23 10:34:43;;;;;;;16.77;12.70;;;;;;;17.56;23.61;96578.59;4953510;28;20396;-62
2022/03/23 10:37:10;;;;;;;12.80;11.60;;;;;;;16.40;24.02;96584.03;4936458;29;20088;-63
2022/03/23 10:39:35;;;;;;;13.90;12.60;;;;;;;17.04;24.06;96591.84;4952020;29;20099;-62
2022/03/23 10:42:16;;;;;;;12.80;11.63;;;;;;;17.15;23.01;96583.22;4952143;28;20027;-64
2022/03/23 10:44:44;;;;;;;16.63;11.75;;;;;;;17.08;22.79;96582.88;4953593;29;20374;-67
2022/03/23 10:47:21;;;;;;;13.55;12.25;;;;;;;17.17;22.79;96574.06;4953319;29;20054;-67
2022/03/23 10:49:47;;;;;;;16.95;12.93;;;;;;;16.39;23.37;96566.34;4953349;29;20034;-67
2022/03/23 10:52:15;;;;;;;13.60;12.20;;;;;;;16.64;23.25;96570.31;4953365;28;20023;-67
2022/03/23 10:54:52;;;;;;;13.60;11.98;;;;;;;16.60;23.21;96580.06;4956297;28;20031;-68
2022/03/23 10:57:18;;;;;;;18.63;12.45;;;;;;;17.17;22.50;96574.06;4956609;29;20035;-67
2022/03/23 10:59:47;;;;;;;12.82;11.65;;;;;;;17.60;21.60;96560.72;4957134;28;20023;-66
2022/03/23 11:02:13;;;;;;;14.68;12.13;;;;;;;17.62;22.20;96558.50;4957176;29;20480;-66
2022/03/23 11:04:39;;;;;;;12.75;11.45;;;;;;;17.49;22.19;96564.81;4957275;29;20054;-67
2022/03/23 11:07:04;;;;;;;12.60;11.38;;;;;;;17.54;21.45;96541.22;4957153;29;20461;-68
2022/03/23 11:18:15;;;;;;;13.15;11.95;;;;;;;18.17;21.15;96539.88;4957316;28;20078;-68
2022/03/23 11:20:43;;;;;;;14.25;12.85;;;;;;;16.93;22.69;96536.78;4956672;29;20477;-68
2022/03/23 11:23:20;;;;;;;13.57;12.23;;;;;;;17.41;22.27;96542.19;4939818;29;20035;-67
2022/03/23 11:25:49;;;;;;;16.30;12.43;;;;;;;18.03;21.71;96527.69;4956873;29;20038;-67
2022/03/23 11:28:15;;;;;;;14.35;12.95;;;;;;;17.72;22.18;96536.69;4956005;28;20452;-67
2022/03/23 11:30:42;;;;;;;16.13;12.75;;;;;;;18.51;21.36;96529.38;4955039;28;20035;-67
2022/03/23 11:33:09;;;;;;;16.38;11.75;;;;;;;18.90;20.42;96514.84;4956964;29;20023;-67
2022/03/23 11:35:37;;;;;;;15.55;11.70;;;;;;;17.45;21.45;96526.97;4956711;29;20369;-67
2022/03/23 11:38:04;;;;;;;13.25;11.93;;;;;;;17.81;21.49;96528.63;4956882;29;20388;-67
2022/03/23 11:40:31;;;;;;;13.02;11.55;;;;;;;18.06;20.62;96519.75;4956305;29;20027;-67
2022/03/23 11:42:56;;;;;;;13.38;12.18;;;;;;;17.99;20.99;96499.81;4955547;29;20031;-66
2022/03/23 11:45:22;;;;;;;13.82;12.52;;;;;;;18.37;20.85;96510.69;4955327;28;20475;-67
2022/03/23 11:47:55;;;;;;;14.43;12.07;;;;;;;18.36;20.52;96523.38;4956545;29;20019;-67
2022/03/23 11:50:55;;;;;;;16.15;12.77;;;;;;;18.76;20.34;96519.66;4938945;29;20035;-67